createdAt,value
2018-02-20T00:00:54.541Z,2.64
2018-02-20T00:03:22.217Z,2.61
2018-02-20T00:05:49.641Z,2.54
2018-02-20T00:08:17.064Z,2.52
2018-02-20T00:10:44.490Z,2.49
2018-02-20T00:13:11.923Z,2.43
2018-02-20T00:15:39.355Z,2.39
2018-02-20T00:18:06.778Z,2.32
2018-02-20T00:20:34.199Z,2.26
2018-02-20T00:23:04.503Z,2.24
2018-02-20T00:25:31.926Z,2.19
2018-02-20T00:27:59.353Z,2.15
2018-02-20T00:30:26.776Z,2.07
2018-02-20T00:32:54.198Z,2.03
2018-02-20T00:35:21.613Z,1.95
2018-02-20T00:37:49.041Z,1.92
2018-02-20T00:40:16.470Z,1.86
2018-02-20T00:42:43.897Z,1.79
2018-02-20T00:45:11.322Z,1.78
2018-02-20T00:47:38.766Z,1.70
2018-02-20T00:50:06.194Z,1.67
2018-02-20T00:52:33.644Z,1.66
2018-02-20T00:55:01.070Z,1.60
2018-02-20T00:57:28.506Z,1.56
2018-02-20T00:59:55.945Z,1.52
2018-02-20T01:02:23.369Z,1.49
2018-02-20T01:04:50.826Z,1.44
2018-02-20T01:07:18.250Z,1.42
2018-02-20T01:09:45.678Z,1.38
2018-02-20T01:12:13.102Z,1.35
2018-02-20T01:14:40.536Z,1.30
2018-02-20T01:17:07.950Z,1.25
2018-02-20T01:19:35.369Z,1.23
2018-02-20T01:22:02.821Z,1.21
2018-02-20T01:24:30.246Z,1.17
2018-02-20T01:26:57.681Z,1.15
2018-02-20T01:29:25.122Z,1.22
2018-02-20T01:31:52.554Z,1.26
2018-02-20T01:34:19.976Z,1.28
2018-02-20T01:36:47.398Z,1.24
2018-02-20T01:39:14.838Z,1.21
2018-02-20T01:41:42.275Z,1.14
2018-02-20T01:44:09.691Z,1.13
2018-02-20T01:46:37.110Z,1.11
2018-02-20T01:49:04.534Z,1.09
2018-02-20T01:51:31.951Z,1.06
2018-02-20T01:53:59.378Z,1.03
2018-02-20T01:56:26.804Z,1.06
2018-02-20T01:58:54.230Z,1.07
2018-02-20T02:01:21.651Z,1.07
2018-02-20T02:03:49.074Z,1.03
2018-02-20T02:06:16.506Z,0.97
2018-02-20T02:08:43.926Z,0.93
2018-02-20T02:11:11.354Z,0.90
2018-02-20T02:13:38.795Z,0.88
2018-02-20T02:16:06.219Z,0.85
2018-02-20T02:18:34.001Z,0.86
2018-02-20T02:21:01.425Z,0.81
2018-02-20T02:23:28.833Z,0.77
2018-02-20T02:25:56.256Z,0.76
2018-02-20T02:28:23.675Z,0.79
2018-02-20T02:30:51.098Z,0.79
2018-02-20T02:33:18.522Z,0.76
2018-02-20T02:35:45.953Z,0.74
2018-02-20T02:38:13.405Z,0.66
2018-02-20T02:40:40.821Z,0.63
2018-02-20T02:43:08.250Z,0.59
2018-02-20T02:45:35.655Z,0.60
2018-02-20T02:48:03.097Z,0.70
2018-02-20T02:50:30.517Z,0.79
2018-02-20T02:52:57.942Z,0.67
2018-02-20T02:55:25.358Z,0.53
2018-02-20T02:57:52.783Z,0.46
2018-02-20T03:00:20.211Z,0.43
2018-02-20T03:02:47.623Z,0.43
2018-02-20T03:05:15.050Z,0.41
2018-02-20T03:07:42.457Z,0.38
2018-02-20T03:10:09.882Z,0.42
2018-02-20T03:12:37.306Z,0.39
2018-02-20T03:15:04.725Z,0.35
2018-02-20T03:17:32.142Z,0.33
2018-02-20T03:19:59.554Z,0.32
2018-02-20T03:22:26.986Z,0.38
2018-02-20T03:24:54.413Z,0.47
2018-02-20T03:27:21.826Z,0.51
2018-02-20T03:29:49.243Z,0.54
2018-02-20T03:32:16.670Z,0.51
2018-02-20T03:34:44.089Z,0.50
2018-02-20T03:37:11.513Z,0.47
2018-02-20T03:39:38.930Z,0.44
2018-02-20T03:42:06.345Z,0.45
2018-02-20T03:44:33.762Z,0.49
2018-02-20T03:47:01.185Z,0.51
2018-02-20T03:49:28.605Z,0.57
2018-02-20T03:51:56.029Z,0.60
2018-02-20T03:54:23.446Z,0.64
2018-02-20T03:56:50.870Z,0.74
2018-02-20T03:59:18.294Z,0.76
2018-02-20T04:01:45.707Z,0.76
2018-02-20T04:04:13.135Z,0.78
2018-02-20T04:06:40.565Z,0.78
2018-02-20T04:09:07.982Z,0.78
2018-02-20T04:11:35.434Z,0.79
2018-02-20T04:14:02.846Z,0.77
2018-02-20T04:16:30.297Z,0.71
2018-02-20T04:18:57.715Z,0.67
2018-02-20T04:21:25.141Z,0.66
2018-02-20T04:23:52.570Z,0.70
2018-02-20T04:26:19.994Z,0.64
2018-02-20T04:28:47.439Z,0.61
2018-02-20T04:31:14.847Z,0.68
2018-02-20T04:33:42.261Z,0.72
2018-02-20T04:36:09.683Z,0.72
2018-02-20T04:38:37.103Z,0.68
2018-02-20T04:41:04.536Z,0.66
2018-02-20T04:43:31.968Z,0.66
2018-02-20T04:45:59.398Z,0.62
2018-02-20T04:48:27.742Z,0.61
2018-02-20T04:50:55.170Z,0.60
2018-02-20T04:53:22.585Z,0.58
2018-02-20T04:55:50.013Z,0.58
2018-02-20T04:58:17.425Z,0.54
2018-02-20T05:00:44.837Z,0.46
2018-02-20T05:03:12.272Z,0.46
2018-02-20T05:05:39.685Z,0.47
2018-02-20T05:08:07.109Z,0.44
2018-02-20T05:10:34.526Z,0.40
2018-02-20T05:13:01.941Z,0.32
2018-02-20T05:15:29.366Z,0.26
2018-02-20T05:17:56.791Z,0.19
2018-02-20T05:20:24.214Z,0.15
2018-02-20T05:22:51.631Z,0.12
2018-02-20T05:25:19.034Z,0.09
2018-02-20T05:27:46.465Z,0.07
2018-02-20T05:30:13.879Z,0.08
2018-02-20T05:32:41.298Z,0.02
2018-02-20T05:35:08.716Z,0.01
2018-02-20T05:37:36.146Z,-0.05
2018-02-20T05:40:03.580Z,-0.11
2018-02-20T05:42:31.003Z,-0.10
2018-02-20T05:44:58.433Z,-0.14
2018-02-20T05:47:25.877Z,-0.17
2018-02-20T05:49:53.334Z,-0.22
2018-02-20T05:52:20.748Z,-0.23
2018-02-20T05:54:48.175Z,-0.25
2018-02-20T05:57:15.602Z,-0.29
2018-02-20T05:59:43.018Z,-0.30
2018-02-20T06:02:10.449Z,-0.34
2018-02-20T06:04:37.880Z,-0.33
2018-02-20T06:07:05.301Z,-0.36
2018-02-20T06:09:32.723Z,-0.38
2018-02-20T06:12:00.151Z,-0.37
2018-02-20T06:14:27.561Z,-0.48
2018-02-20T06:16:54.998Z,-0.50
2018-02-20T06:19:22.418Z,-0.57
2018-02-20T06:21:49.835Z,-0.49
2018-02-20T06:24:17.259Z,-0.51
2018-02-20T06:26:44.690Z,-0.46
2018-02-20T06:29:12.122Z,-0.49
2018-02-20T06:31:39.550Z,-0.45
2018-02-20T06:34:06.996Z,-0.49
2018-02-20T06:36:34.411Z,-0.50
2018-02-20T06:39:01.834Z,-0.52
2018-02-20T06:41:29.258Z,-0.52
2018-02-20T06:43:56.674Z,-0.51
2018-02-20T06:46:24.103Z,-0.56
2018-02-20T06:48:51.526Z,-0.53
2018-02-20T06:51:18.962Z,-0.53
2018-02-20T06:53:46.390Z,-0.52
2018-02-20T06:56:13.814Z,-0.54
2018-02-20T06:58:41.243Z,-0.54
2018-02-20T07:01:08.668Z,-0.48
2018-02-20T07:03:36.102Z,-0.44
2018-02-20T07:06:03.527Z,-0.43
2018-02-20T07:08:30.953Z,-0.35
2018-02-20T07:10:58.369Z,-0.36
2018-02-20T07:13:25.914Z,-0.32
2018-02-20T07:15:53.334Z,-0.34
2018-02-20T07:18:20.782Z,-0.30
2018-02-20T07:20:48.542Z,-0.27
2018-02-20T07:23:15.970Z,-0.21
2018-02-20T07:25:43.393Z,-0.18
2018-02-20T07:28:10.822Z,-0.16
2018-02-20T07:30:38.239Z,-0.15
2018-02-20T07:33:05.662Z,-0.11
2018-02-20T07:35:33.090Z,-0.10
2018-02-20T07:38:00.523Z,-0.04
2018-02-20T07:40:27.942Z,0.01
2018-02-20T07:42:55.375Z,0.08
2018-02-20T07:45:22.806Z,0.15
2018-02-20T07:47:50.238Z,0.15
2018-02-20T07:50:17.655Z,0.17
2018-02-20T07:52:45.072Z,0.19
2018-02-20T07:55:12.503Z,0.20
2018-02-20T07:57:39.919Z,0.26
2018-02-20T08:00:07.347Z,0.36
2018-02-20T08:02:34.767Z,0.43
2018-02-20T08:05:02.195Z,0.50
2018-02-20T08:07:29.618Z,0.53
2018-02-20T08:09:57.033Z,0.56
2018-02-20T08:12:24.461Z,0.63
2018-02-20T08:14:51.878Z,0.68
2018-02-20T08:17:19.302Z,0.71
2018-02-20T08:19:46.730Z,0.72
2018-02-20T08:22:14.151Z,0.75
2018-02-20T08:24:41.574Z,0.82
2018-02-20T08:27:08.994Z,0.90
2018-02-20T08:29:36.418Z,0.98
2018-02-20T08:32:03.841Z,1.06
2018-02-20T08:34:31.347Z,1.13
2018-02-20T08:36:58.678Z,1.24
2018-02-20T08:39:26.090Z,1.35
2018-02-20T08:41:53.515Z,1.43
2018-02-20T08:44:20.930Z,1.55
2018-02-20T08:46:48.375Z,1.68
2018-02-20T08:49:15.798Z,1.78
2018-02-20T08:51:43.224Z,1.90
2018-02-20T08:54:10.650Z,1.99
2018-02-20T08:56:38.071Z,2.13
2018-02-20T08:59:05.490Z,2.31
2018-02-20T09:01:32.909Z,2.45
2018-02-20T09:04:00.362Z,2.58
2018-02-20T09:06:27.783Z,2.65
2018-02-20T09:08:55.215Z,2.74
2018-02-20T09:11:22.681Z,2.91
2018-02-20T09:13:50.086Z,3.01
2018-02-20T09:16:17.509Z,3.18
2018-02-20T09:18:44.972Z,3.39
2018-02-20T09:21:12.366Z,3.54
2018-02-20T09:23:39.790Z,3.58
2018-02-20T09:26:07.212Z,3.78
2018-02-20T09:28:34.642Z,4.00
2018-02-20T09:31:02.058Z,4.18
2018-02-20T09:33:29.478Z,4.38
2018-02-20T09:35:56.889Z,4.61
2018-02-20T09:38:24.308Z,4.88
2018-02-20T09:40:51.725Z,4.93
2018-02-20T09:43:19.138Z,4.97
2018-02-20T09:45:46.566Z,5.28
2018-02-20T09:48:13.982Z,5.46
2018-02-20T09:50:41.394Z,5.65
2018-02-20T09:53:08.809Z,5.87
2018-02-20T09:55:36.497Z,5.83
2018-02-20T09:58:03.910Z,5.92
2018-02-20T10:00:31.336Z,6.12
2018-02-20T10:02:58.747Z,6.44
2018-02-20T10:05:26.160Z,6.75
2018-02-20T10:07:53.618Z,6.72
2018-02-20T10:10:21.022Z,6.95
2018-02-20T10:12:48.467Z,7.29
2018-02-20T10:15:15.878Z,7.61
2018-02-20T10:17:43.353Z,7.98
2018-02-20T10:20:10.770Z,8.06
2018-02-20T10:22:38.177Z,8.16
2018-02-20T10:25:05.599Z,8.03
2018-02-20T10:27:33.011Z,8.26
2018-02-20T10:30:00.436Z,8.43
2018-02-20T10:32:27.838Z,8.81
2018-02-20T10:34:55.255Z,9.04
2018-02-20T10:37:22.669Z,9.05
2018-02-20T10:39:50.078Z,9.70
2018-02-20T10:42:17.494Z,10.14
2018-02-20T10:44:44.912Z,10.31
2018-02-20T10:47:12.329Z,9.91
2018-02-20T10:49:39.747Z,9.85
2018-02-20T10:52:07.157Z,10.16
2018-02-20T10:54:34.574Z,10.26
2018-02-20T10:57:01.990Z,10.46
2018-02-20T10:59:29.758Z,10.72
2018-02-20T11:01:57.177Z,10.60
2018-02-20T11:04:24.594Z,10.55
2018-02-20T11:06:52.018Z,10.66
2018-02-20T11:09:19.435Z,10.58
2018-02-20T11:11:46.858Z,10.20
2018-02-20T11:14:14.274Z,10.30
2018-02-20T11:16:41.690Z,10.77
2018-02-20T11:19:09.123Z,11.01
2018-02-20T11:21:36.558Z,11.08
2018-02-20T11:24:05.037Z,11.03
2018-02-20T11:26:32.451Z,10.54
2018-02-20T11:28:59.895Z,10.55
2018-02-20T11:31:27.311Z,10.61
2018-02-20T11:33:54.727Z,10.41
2018-02-20T11:36:22.153Z,10.52
2018-02-20T11:38:49.561Z,10.61
2018-02-20T11:41:16.985Z,10.23
2018-02-20T11:43:44.398Z,10.60
2018-02-20T11:46:11.811Z,10.06
2018-02-20T11:48:39.236Z,9.52
2018-02-20T11:51:06.650Z,9.54
2018-02-20T11:53:34.066Z,9.00
2018-02-20T11:56:01.478Z,9.26
2018-02-20T11:58:28.907Z,9.53
2018-02-20T12:00:56.330Z,9.72
2018-02-20T12:03:23.735Z,9.69
2018-02-20T12:05:51.153Z,9.38
2018-02-20T12:08:18.561Z,8.88
2018-02-20T12:10:45.978Z,8.90
2018-02-20T12:13:13.386Z,8.93
2018-02-20T12:15:40.811Z,9.01
2018-02-20T12:18:08.214Z,9.51
2018-02-20T12:20:35.665Z,9.53
2018-02-20T12:23:03.083Z,9.68
2018-02-20T12:25:30.491Z,9.90
2018-02-20T12:27:57.907Z,9.95
2018-02-20T12:30:25.321Z,9.59
2018-02-20T12:32:52.750Z,9.75
2018-02-20T12:35:20.173Z,9.73
2018-02-20T12:37:47.598Z,9.99
2018-02-20T12:40:15.022Z,9.98
2018-02-20T12:42:43.452Z,10.13
2018-02-20T12:45:10.904Z,9.83
2018-02-20T12:47:38.363Z,9.78
2018-02-20T12:50:05.781Z,9.29
2018-02-20T12:52:33.202Z,9.45
2018-02-20T12:55:00.640Z,9.61
2018-02-20T12:57:28.112Z,9.73
2018-02-20T12:59:55.515Z,9.96
2018-02-20T13:02:22.953Z,9.90
2018-02-20T13:04:50.363Z,9.94
2018-02-20T13:07:17.876Z,9.78
2018-02-20T13:09:45.310Z,9.86
2018-02-20T13:12:12.829Z,9.68
2018-02-20T13:14:40.264Z,9.74
2018-02-20T13:17:07.708Z,9.89
2018-02-20T13:19:35.122Z,10.03
2018-02-20T13:22:02.541Z,10.27
2018-02-20T13:24:30.011Z,10.53
2018-02-20T13:26:57.458Z,10.60
2018-02-20T13:29:28.928Z,10.35
2018-02-20T13:31:56.405Z,9.89
2018-02-20T13:34:23.839Z,10.08
2018-02-20T13:36:51.270Z,10.30
2018-02-20T13:39:18.694Z,10.69
2018-02-20T13:41:46.123Z,10.35
2018-02-20T13:44:13.542Z,10.14
2018-02-20T13:46:40.966Z,9.81
2018-02-20T13:49:08.387Z,10.10
2018-02-20T13:51:35.811Z,10.21
2018-02-20T13:54:03.233Z,9.99
2018-02-20T13:56:30.660Z,10.12
2018-02-20T13:58:58.900Z,10.36
2018-02-20T14:01:26.318Z,10.36
2018-02-20T14:03:53.742Z,10.47
2018-02-20T14:06:21.166Z,10.08
2018-02-20T14:08:48.578Z,9.93
2018-02-20T14:11:16.003Z,9.74
2018-02-20T14:13:43.414Z,9.81
2018-02-20T14:16:10.858Z,9.73
2018-02-20T14:18:38.266Z,9.68
2018-02-20T14:21:05.675Z,9.66
2018-02-20T14:23:33.103Z,9.56
2018-02-20T14:26:00.516Z,9.64
2018-02-20T14:28:27.944Z,9.72
2018-02-20T14:30:55.349Z,9.81
2018-02-20T14:33:22.790Z,9.59
2018-02-20T14:35:50.203Z,9.62
2018-02-20T14:38:17.613Z,9.62
2018-02-20T14:40:45.031Z,9.55
2018-02-20T14:43:12.501Z,9.56
2018-02-20T14:45:39.934Z,9.43
2018-02-20T14:48:07.855Z,9.09
2018-02-20T14:50:35.277Z,8.85
2018-02-20T14:53:02.691Z,8.55
2018-02-20T14:55:30.105Z,8.41
2018-02-20T14:57:57.541Z,8.29
2018-02-20T15:00:24.963Z,8.35
2018-02-20T15:02:52.381Z,8.27
2018-02-20T15:05:19.790Z,8.36
2018-02-20T15:07:47.215Z,8.48
2018-02-20T15:10:14.635Z,8.44
2018-02-20T15:12:42.142Z,8.34
2018-02-20T15:15:09.559Z,8.17
2018-02-20T15:17:36.970Z,8.17
2018-02-20T15:20:04.391Z,8.00
2018-02-20T15:22:31.839Z,7.95
2018-02-20T15:25:00.275Z,7.83
2018-02-20T15:27:27.706Z,7.81
2018-02-20T15:29:55.127Z,7.73
2018-02-20T15:32:22.570Z,7.63
2018-02-20T15:34:49.980Z,7.46
2018-02-20T15:37:17.403Z,7.16
2018-02-20T15:39:44.816Z,7.02
2018-02-20T15:42:12.241Z,6.92
2018-02-20T15:44:39.657Z,6.75
2018-02-20T15:47:07.084Z,6.66
2018-02-20T15:49:34.550Z,6.55
2018-02-20T15:52:01.994Z,6.37
2018-02-20T15:54:29.422Z,6.29
2018-02-20T15:56:56.898Z,6.18
2018-02-20T15:59:24.322Z,6.18
2018-02-20T16:01:51.777Z,6.04
2018-02-20T16:04:19.230Z,5.99
2018-02-20T16:06:46.665Z,5.89
2018-02-20T16:09:14.390Z,5.82
2018-02-20T16:11:41.844Z,5.67
2018-02-20T16:14:09.265Z,5.72
2018-02-20T16:16:36.688Z,5.61
2018-02-20T16:19:04.090Z,5.60
2018-02-20T16:21:31.502Z,5.48
2018-02-20T16:23:58.921Z,5.52
2018-02-20T16:26:26.330Z,5.46
2018-02-20T16:28:53.744Z,5.31
2018-02-20T16:31:21.166Z,5.31
2018-02-20T16:33:48.678Z,5.25
2018-02-20T16:36:16.098Z,5.18
2018-02-20T16:38:43.510Z,5.16
2018-02-20T16:41:10.923Z,5.10
2018-02-20T16:43:38.348Z,5.06
2018-02-20T16:46:05.769Z,5.01
2018-02-20T16:48:33.194Z,4.94
2018-02-20T16:51:00.606Z,4.99
2018-02-20T16:53:28.025Z,4.98
2018-02-20T16:55:55.442Z,4.86
2018-02-20T16:58:22.858Z,4.74
2018-02-20T17:00:50.276Z,4.71
2018-02-20T17:03:17.682Z,4.72
2018-02-20T17:05:45.128Z,4.68
2018-02-20T17:08:12.534Z,4.70
2018-02-20T17:10:39.970Z,4.63
2018-02-20T17:13:07.393Z,4.64
2018-02-20T17:15:34.818Z,4.58
2018-02-20T17:18:02.257Z,4.57
2018-02-20T17:20:29.702Z,4.51
2018-02-20T17:22:57.126Z,4.50
2018-02-20T17:25:24.538Z,4.41
2018-02-20T17:27:52.277Z,4.41
2018-02-20T17:30:19.705Z,4.41
2018-02-20T17:32:47.127Z,4.44
2018-02-20T17:35:14.555Z,4.37
2018-02-20T17:37:41.978Z,4.39
2018-02-20T17:40:09.394Z,4.35
2018-02-20T17:42:36.822Z,4.33
2018-02-20T17:45:04.258Z,4.26
2018-02-20T17:47:31.693Z,4.23
2018-02-20T17:49:59.154Z,4.18
2018-02-20T17:52:26.575Z,4.12
2018-02-20T17:54:53.990Z,4.17
2018-02-20T17:57:21.419Z,4.06
2018-02-20T17:59:48.845Z,4.00
2018-02-20T18:02:16.275Z,3.96
2018-02-20T18:04:43.706Z,3.89
2018-02-20T18:07:11.129Z,3.87
2018-02-20T18:09:38.550Z,3.87
2018-02-20T18:12:05.969Z,3.86
2018-02-20T18:14:33.406Z,3.83
2018-02-20T18:17:00.834Z,3.78
2018-02-20T18:19:28.247Z,3.70
2018-02-20T18:21:55.674Z,3.72
2018-02-20T18:24:23.096Z,3.75
2018-02-20T18:26:50.551Z,3.70
2018-02-20T18:29:17.967Z,3.69
2018-02-20T18:31:45.419Z,3.70
2018-02-20T18:34:12.846Z,3.65
2018-02-20T18:36:40.292Z,3.69
2018-02-20T18:39:07.702Z,3.51
2018-02-20T18:41:35.134Z,3.59
2018-02-20T18:44:02.561Z,3.46
2018-02-20T18:46:30.029Z,3.46
2018-02-20T18:48:57.444Z,3.44
2018-02-20T18:51:24.877Z,3.44
2018-02-20T18:53:52.302Z,3.44
2018-02-20T18:56:19.735Z,3.41
2018-02-20T18:58:47.158Z,3.42
2018-02-20T19:01:15.614Z,3.44
2018-02-20T19:03:43.038Z,3.44
2018-02-20T19:06:10.457Z,3.45
2018-02-20T19:08:37.889Z,3.40
2018-02-20T19:11:05.310Z,3.36
2018-02-20T19:13:32.755Z,3.33
2018-02-20T19:16:00.185Z,3.27
2018-02-20T19:18:27.605Z,3.25
2018-02-20T19:20:55.035Z,3.22
2018-02-20T19:23:22.518Z,3.21
2018-02-20T19:25:49.945Z,3.25
2018-02-20T19:28:17.390Z,3.13
2018-02-20T19:30:44.817Z,3.14
2018-02-20T19:33:12.241Z,3.03
2018-02-20T19:35:39.670Z,3.04
2018-02-20T19:38:07.097Z,2.94
2018-02-20T19:40:34.514Z,2.95
2018-02-20T19:43:01.943Z,2.91
2018-02-20T19:45:29.354Z,2.92
2018-02-20T19:47:56.794Z,2.92
2018-02-20T19:50:24.214Z,2.92
2018-02-20T19:52:51.654Z,2.88
2018-02-20T19:55:19.073Z,2.85
2018-02-20T19:57:46.503Z,2.77
2018-02-20T20:00:13.943Z,2.74
2018-02-20T20:02:41.429Z,2.74
2018-02-20T20:05:08.865Z,2.68
2018-02-20T20:07:36.287Z,2.66
2018-02-20T20:10:03.743Z,2.67
2018-02-20T20:12:31.168Z,2.65
2018-02-20T20:14:58.586Z,2.64
2018-02-20T20:17:26.029Z,2.63
2018-02-20T20:19:53.446Z,2.61
2018-02-20T20:22:20.895Z,2.54
2018-02-20T20:24:48.323Z,2.58
2018-02-20T20:27:15.746Z,2.61
2018-02-20T20:29:43.175Z,2.55
2018-02-20T20:32:10.592Z,2.54
2018-02-20T20:34:38.022Z,2.53
2018-02-20T20:37:05.446Z,2.53
2018-02-20T20:39:32.869Z,2.56
2018-02-20T20:42:00.285Z,2.49
2018-02-20T20:44:27.718Z,2.47
2018-02-20T20:46:55.140Z,2.46
2018-02-20T20:49:22.574Z,2.38
2018-02-20T20:51:49.998Z,2.35
2018-02-20T20:54:17.426Z,2.38
2018-02-20T20:56:45.207Z,2.35
2018-02-20T20:59:12.630Z,2.27
2018-02-20T21:01:40.050Z,2.31
2018-02-20T21:04:07.482Z,2.20
2018-02-20T21:06:34.903Z,2.23
2018-02-20T21:09:02.362Z,2.18
2018-02-20T21:11:29.759Z,2.18
2018-02-20T21:13:57.175Z,2.08
2018-02-20T21:16:24.596Z,2.01
2018-02-20T21:18:52.022Z,1.97
2018-02-20T21:21:19.780Z,1.97
2018-02-20T21:23:47.203Z,1.94
2018-02-20T21:26:14.617Z,1.95
2018-02-20T21:28:42.046Z,1.93
2018-02-20T21:31:09.769Z,1.92
2018-02-20T21:33:37.210Z,1.86
2018-02-20T21:36:04.643Z,1.89
2018-02-20T21:38:32.061Z,1.87
2018-02-20T21:40:59.490Z,1.87
2018-02-20T21:43:26.916Z,1.87
2018-02-20T21:45:54.354Z,1.84
2018-02-20T21:48:21.887Z,1.87
2018-02-20T21:50:49.789Z,1.84
2018-02-20T21:53:17.163Z,1.79
2018-02-20T21:55:44.582Z,1.78
2018-02-20T21:58:12.018Z,1.82
2018-02-20T22:00:39.499Z,1.79
2018-02-20T22:03:06.870Z,1.75
2018-02-20T22:05:34.294Z,1.71
2018-02-20T22:08:01.714Z,1.71
2018-02-20T22:10:29.138Z,1.67
2018-02-20T22:12:56.553Z,1.66
2018-02-20T22:15:23.987Z,1.68
2018-02-20T22:17:51.417Z,1.55
2018-02-20T22:20:18.827Z,1.52
2018-02-20T22:22:46.258Z,1.50
2018-02-20T22:25:13.678Z,1.43
2018-02-20T22:27:41.101Z,1.44
2018-02-20T22:30:08.518Z,1.41
2018-02-20T22:32:35.934Z,1.40
2018-02-20T22:35:03.355Z,1.29
2018-02-20T22:37:30.778Z,1.26
2018-02-20T22:39:58.197Z,1.28
2018-02-20T22:42:25.618Z,1.22
2018-02-20T22:44:53.034Z,1.24
2018-02-20T22:47:20.455Z,1.25
2018-02-20T22:49:47.871Z,1.21
2018-02-20T22:52:15.297Z,1.21
2018-02-20T22:54:42.705Z,1.18
2018-02-20T22:57:10.148Z,1.19
2018-02-20T22:59:37.538Z,1.15
2018-02-20T23:02:04.966Z,1.10
2018-02-20T23:04:32.733Z,1.10
2018-02-20T23:07:00.179Z,1.10
2018-02-20T23:09:27.578Z,1.09
2018-02-20T23:11:55.033Z,1.09
2018-02-20T23:14:22.446Z,1.08
2018-02-20T23:16:49.885Z,1.06
2018-02-20T23:19:17.294Z,1.03
2018-02-20T23:21:44.706Z,0.99
2018-02-20T23:24:12.145Z,1.03
2018-02-20T23:26:39.554Z,0.96
2018-02-20T23:29:06.982Z,0.97
2018-02-20T23:31:34.406Z,0.94
2018-02-20T23:34:01.822Z,0.96
2018-02-20T23:36:29.245Z,0.93
2018-02-20T23:38:56.670Z,0.96
2018-02-20T23:41:24.418Z,0.88
2018-02-20T23:43:51.847Z,0.87
2018-02-20T23:46:19.266Z,0.88
2018-02-20T23:48:46.684Z,0.88
2018-02-20T23:51:19.602Z,0.88
2018-02-20T23:53:47.433Z,0.82
2018-02-20T23:56:14.861Z,0.85
2018-02-20T23:58:42.277Z,0.85
